Time;durP1;ratioP1;P1;durP2;ratioP2;P2;SDS_P1;SDS_P2;PMS_P1;PMS_P2;Temp;Humidity;BMP_temperature;BMP_pressure;BME280_temperature;BME280_humidity;BME280_pressure;Samples;Min_cycle;Max_cycle;Signal;HPM_P1;HPM_P2
2024/02/15 00:01:55;;;;;;;0.60;0.60;;;;;;;8.90;88.94;98994.38;4946414;29;20031;-95
2024/02/15 00:04:21;;;;;;;0.60;0.60;;;;;;;8.87;89.16;98994.25;4965235;28;20027;-94
2024/02/15 00:06:47;;;;;;;0.60;0.60;;;;;;;8.81;89.21;98991.34;4986124;28;20055;-92
2024/02/15 00:09:12;;;;;;;0.50;0.50;;;;;;;8.79;89.22;98984.16;4971750;28;20061;-93
2024/02/15 00:11:39;;;;;;;0.60;0.60;;;;;;;8.84;89.37;98988.81;4964445;28;20067;-95
2024/02/15 00:14:05;;;;;;;0.57;0.57;;;;;;;8.76;89.52;98997.31;4962718;28;20019;-95
2024/02/15 00:16:31;;;;;;;0.50;0.50;;;;;;;8.81;89.48;99001.97;4964255;28;20059;-94
2024/02/15 00:18:57;;;;;;;0.60;0.60;;;;;;;8.83;89.22;99000.31;4981108;28;20303;-95
2024/02/15 00:21:23;;;;;;;0.50;0.50;;;;;;;8.76;89.40;98999.97;4978114;28;20074;-94
2024/02/15 00:23:49;;;;;;;0.57;0.57;;;;;;;8.81;88.90;99003.72;4960313;28;20134;-96
2024/02/15 00:26:15;;;;;;;0.60;0.60;;;;;;;8.72;89.71;99001.63;4965485;28;20015;-92
2024/02/15 00:28:43;;;;;;;0.52;0.52;;;;;;;8.81;89.47;99011.72;4973191;28;20043;-92
2024/02/15 00:31:10;;;;;;;0.60;0.60;;;;;;;8.82;89.05;99002.91;4960087;28;20038;-93
2024/02/15 00:33:36;;;;;;;0.60;0.60;;;;;;;8.89;88.73;99000.53;4964379;28;20031;-95
2024/02/15 00:36:03;;;;;;;0.60;0.60;;;;;;;8.80;88.87;98996.59;4965986;28;20083;-94
2024/02/15 00:38:29;;;;;;;;;;;;;;;8.76;89.26;98999.97;4967832;28;20032;-91
2024/02/15 00:40:54;;;;;;;0.65;0.65;;;;;;;8.72;88.93;98993.66;4971531;28;19958;-92
2024/02/15 00:43:20;;;;;;;0.60;0.60;;;;;;;8.50;90.14;98986.53;4971928;28;20034;-91
2024/02/15 00:45:45;;;;;;;0.60;0.60;;;;;;;8.45;90.45;98991.66;4971331;28;20023;-92
2024/02/15 00:48:12;;;;;;;0.52;0.52;;;;;;;8.40;90.58;98990.56;4970928;28;20015;-92
2024/02/15 00:50:38;;;;;;;0.60;0.60;;;;;;;8.27;90.96;98993.50;4985832;28;20031;-91
2024/02/15 00:53:03;;;;;;;0.60;0.60;;;;;;;8.08;91.96;98997.13;4988395;28;20122;-92
2024/02/15 00:55:29;;;;;;;0.60;0.60;;;;;;;8.06;92.86;98993.50;4971843;28;20119;-92
2024/02/15 00:57:55;;;;;;;0.60;0.60;;;;;;;7.90;92.57;98989.25;4972535;28;20055;-90
2024/02/15 01:00:21;;;;;;;0.60;0.60;;;;;;;7.89;93.33;98997.19;4982452;28;20042;-89
2024/02/15 01:02:47;;;;;;;0.60;0.60;;;;;;;8.05;93.86;98990.75;4954482;28;20043;-89
2024/02/15 01:05:15;;;;;;;0.60;0.60;;;;;;;8.15;93.22;98983.28;4988194;28;20055;-89
2024/02/15 01:07:41;;;;;;;0.60;0.60;;;;;;;8.17;93.07;98986.91;4987054;28;20042;-90
2024/02/15 01:10:10;;;;;;;0.60;0.60;;;;;;;8.25;93.08;98984.56;4986800;28;20046;-89
2024/02/15 01:12:36;;;;;;;0.60;0.60;;;;;;;8.21;92.88;98985.28;4967501;28;20047;-88
2024/02/15 01:15:02;;;;;;;0.60;0.60;;;;;;;8.06;93.01;98984.63;4970944;28;20473;-91
2024/02/15 01:17:28;;;;;;;0.70;0.70;;;;;;;7.92;94.34;98984.94;4967745;28;20075;-90
2024/02/15 01:19:54;;;;;;;0.60;0.60;;;;;;;7.86;94.30;98987.34;4986556;28;20028;-90
2024/02/15 01:22:23;;;;;;;0.60;0.60;;;;;;;7.81;94.45;98985.28;4987168;28;20054;-91
2024/02/15 01:24:49;;;;;;;0.60;0.60;;;;;;;7.80;94.64;98983.47;4972111;28;20062;-91
2024/02/15 01:27:16;;;;;;;0.60;0.60;;;;;;;7.78;95.00;98983.44;4953901;28;20024;-90
2024/02/15 01:29:42;;;;;;;0.60;0.60;;;;;;;7.69;94.93;98983.03;4971778;28;20019;-90
2024/02/15 01:32:09;;;;;;;0.60;0.60;;;;;;;7.61;94.97;98977.34;4973884;28;20022;-89
2024/02/15 01:34:35;;;;;;;0.60;0.60;;;;;;;7.51;94.87;98979.53;4974317;28;20032;-90
2024/02/15 01:37:00;;;;;;;0.70;0.70;;;;;;;7.43;95.55;98979.22;4990211;28;20043;-91
2024/02/15 01:39:26;;;;;;;0.70;0.70;;;;;;;7.29;95.52;98980.31;4957718;28;20050;-90
2024/02/15 01:41:55;;;;;;;0.57;0.57;;;;;;;7.26;96.12;98983.72;4973200;28;20023;-90
2024/02/15 01:44:23;;;;;;;0.60;0.60;;;;;;;7.08;96.13;98980.22;4967821;28;20027;-90
2024/02/15 01:46:54;;;;;;;0.70;0.70;;;;;;;6.98;96.75;98986.84;4988305;28;20094;-90
2024/02/15 01:49:27;;;;;;;0.60;0.60;;;;;;;6.88;96.50;98982.84;4990832;28;20027;-92
2024/02/15 01:51:56;;;;;;;0.70;0.70;;;;;;;6.75;96.92;98988.38;4959049;28;20046;-91
2024/02/15 01:54:22;;;;;;;0.70;0.70;;;;;;;6.69;97.23;98988.09;4973075;28;20122;-90
2024/02/15 01:56:48;;;;;;;0.70;0.70;;;;;;;6.56;98.48;98991.88;4973587;28;20035;-90
2024/02/15 01:59:17;;;;;;;0.63;0.63;;;;;;;6.41;98.75;98989.41;4973658;28;20035;-91
2024/02/15 02:01:45;;;;;;;0.60;0.60;;;;;;;6.43;98.31;98994.78;4991837;28;20194;-90
2024/02/15 02:04:10;;;;;;;0.70;0.70;;;;;;;6.53;98.78;98988.19;4974949;28;20023;-91
2024/02/15 02:06:40;;;;;;;0.70;0.70;;;;;;;6.69;99.12;98985.44;4975171;28;20308;-92
2024/02/15 02:09:11;;;;;;;0.60;0.60;;;;;;;6.71;98.96;98986.44;4990931;28;20051;-92
2024/02/15 02:11:36;;;;;;;0.70;0.70;;;;;;;6.63;99.08;98983.41;4991230;28;20027;-90
2024/02/15 02:14:04;;;;;;;0.60;0.60;;;;;;;6.62;99.67;98978.06;4991382;28;20066;-90
2024/02/15 02:16:31;;;;;;;;;;;;;;;6.47;98.93;98982.56;4975063;28;20043;-89
2024/02/15 02:18:57;;;;;;;0.65;0.65;;;;;;;6.44;99.57;98980.69;4990402;28;19926;-92
2024/02/15 02:21:26;;;;;;;0.70;0.70;;;;;;;6.40;99.24;98981.38;4978185;28;20083;-91
2024/02/15 02:23:57;;;;;;;0.60;0.60;;;;;;;6.45;100.00;98974.56;4977933;28;20039;-92
2024/02/15 02:26:24;;;;;;;0.60;0.60;;;;;;;6.41;99.70;98983.19;4976342;28;20099;-92
2024/02/15 02:28:53;;;;;;;0.70;0.70;;;;;;;6.32;100.00;98982.72;4961202;28;20088;-92
2024/02/15 02:31:19;;;;;;;0.60;0.60;;;;;;;6.25;99.54;98973.59;4976591;28;20046;-90
2024/02/15 02:33:53;;;;;;;0.70;0.70;;;;;;;6.19;99.85;98975.94;4988271;28;20103;-91
2024/02/15 02:36:19;;;;;;;0.70;0.70;;;;;;;6.07;100.00;98975.31;4974703;28;20027;-92
2024/02/15 02:38:45;;;;;;;0.60;0.60;;;;;;;5.95;100.00;98974.69;4975154;28;20038;-91
2024/02/15 02:41:12;;;;;;;0.70;0.70;;;;;;;6.00;100.00;98976.75;4988796;28;20020;-91
2024/02/15 02:43:40;;;;;;;0.70;0.70;;;;;;;6.11;100.00;98979.94;4988942;28;20106;-91
2024/02/15 02:46:05;;;;;;;0.70;0.70;;;;;;;6.18;100.00;98976.78;4974998;28;20023;-91
2024/02/15 02:48:35;;;;;;;0.70;0.70;;;;;;;6.06;100.00;98971.75;4967417;28;20054;-95
2024/02/15 02:51:01;;;;;;;0.70;0.70;;;;;;;6.01;100.00;98980.28;4991160;28;20023;-91
2024/02/15 02:53:28;;;;;;;0.70;0.70;;;;;;;5.92;100.00;98978.09;4977555;28;20023;-91
2024/02/15 02:55:56;;;;;;;0.60;0.60;;;;;;;5.84;100.00;98976.72;4969765;28;20035;-91
2024/02/15 02:58:22;;;;;;;0.70;0.70;;;;;;;5.86;100.00;98977.75;4953226;28;20030;-91
2024/02/15 03:00:51;;;;;;;0.70;0.70;;;;;;;5.89;100.00;98978.81;4989242;28;20045;-91
2024/02/15 03:03:19;;;;;;;0.70;0.70;;;;;;;5.89;100.00;98970.88;4971881;28;20027;-90
2024/02/15 03:05:44;;;;;;;;;;;;;;;5.96;100.00;98976.50;4973550;28;20127;-91
2024/02/15 03:08:18;;;;;;;0.60;0.60;;;;;;;6.03;100.00;98976.88;4970409;28;19938;-92
2024/02/15 03:10:43;;;;;;;0.70;0.70;;;;;;;6.06;100.00;98977.03;4969246;28;20058;-91
2024/02/15 03:13:09;;;;;;;0.70;0.70;;;;;;;5.99;100.00;98974.94;4974682;28;20031;-93
2024/02/15 03:15:36;;;;;;;0.60;0.60;;;;;;;6.01;100.00;98975.91;4986075;28;20095;-92
2024/02/15 03:18:06;;;;;;;0.70;0.70;;;;;;;6.09;100.00;98971.00;4971056;28;20051;-92
2024/02/15 03:20:33;;;;;;;0.70;0.70;;;;;;;6.21;100.00;98971.59;4966583;28;20062;-93
2024/02/15 03:23:02;;;;;;;0.70;0.70;;;;;;;6.10;100.00;98967.53;4943556;28;20047;-91
2024/02/15 03:25:31;;;;;;;0.60;0.60;;;;;;;6.10;100.00;98973.72;4957361;28;20035;-92
2024/02/15 03:28:03;;;;;;;0.70;0.70;;;;;;;6.12;100.00;98979.09;4975158;28;20042;-92
2024/02/15 03:30:31;;;;;;;0.70;0.70;;;;;;;6.05;100.00;98969.94;4988013;28;20023;-93
2024/02/15 03:32:59;;;;;;;0.70;0.70;;;;;;;5.93;100.00;98977.25;4955104;29;20059;-92
2024/02/15 03:35:26;;;;;;;0.70;0.70;;;;;;;5.92;100.00;98972.78;4988099;28;20019;-91
2024/02/15 03:37:52;;;;;;;0.70;0.70;;;;;;;5.86;100.00;98965.41;4970820;28;20046;-92
2024/02/15 03:40:19;;;;;;;0.65;0.65;;;;;;;5.88;100.00;98974.31;4972279;28;20043;-92
2024/02/15 03:42:46;;;;;;;0.70;0.70;;;;;;;5.85;100.00;98966.25;4972868;28;20027;-93
2024/02/15 03:45:13;;;;;;;0.70;0.70;;;;;;;5.90;100.00;98966.47;4957417;28;20039;-92
2024/02/15 03:47:40;;;;;;;0.73;0.73;;;;;;;5.91;100.00;98971.88;4971208;28;20027;-92
2024/02/15 03:50:09;;;;;;;0.70;0.70;;;;;;;5.84;100.00;98967.06;4983399;28;20048;-92
2024/02/15 03:52:35;;;;;;;0.70;0.70;;;;;;;5.81;100.00;98971.31;4972725;28;20054;-92
2024/02/15 03:55:01;;;;;;;0.70;0.70;;;;;;;5.83;100.00;98967.88;4970693;28;20034;-92
2024/02/15 03:57:28;;;;;;;0.70;0.70;;;;;;;5.86;100.00;98967.16;4974235;28;20026;-91
2024/02/15 03:59:57;;;;;;;0.70;0.70;;;;;;;5.96;100.00;98965.91;4971597;28;20084;-92
2024/02/15 04:02:26;;;;;;;0.70;0.70;;;;;;;6.09;100.00;98968.38;4972853;28;20023;-92
2024/02/15 04:04:54;;;;;;;0.70;0.70;;;;;;;6.18;100.00;98963.53;4959376;28;20122;-92
2024/02/15 04:07:27;;;;;;;0.70;0.70;;;;;;;6.29;100.00;98970.25;4975269;28;20046;-91
2024/02/15 04:09:53;;;;;;;0.70;0.70;;;;;;;6.46;100.00;98975.47;4967695;28;20094;-93
2024/02/15 04:12:19;;;;;;;0.70;0.70;;;;;;;6.50;100.00;98978.34;4951241;28;20046;-93
2024/02/15 04:14:45;;;;;;;0.70;0.70;;;;;;;6.47;100.00;98974.63;4967963;28;20027;-92
2024/02/15 04:17:15;;;;;;;0.60;0.60;;;;;;;6.50;100.00;98974.78;4988575;28;20055;-92
2024/02/15 04:19:41;;;;;;;0.70;0.70;;;;;;;6.51;100.00;98968.66;4973785;28;20023;-93
2024/02/15 04:22:07;;;;;;;0.70;0.70;;;;;;;6.57;100.00;98977.81;4957185;28;20050;-93
2024/02/15 04:24:40;;;;;;;0.70;0.70;;;;;;;6.65;100.00;98971.13;4988838;28;20062;-91
2024/02/15 04:27:11;;;;;;;0.70;0.70;;;;;;;6.64;99.81;98966.66;4989175;28;20417;-92
2024/02/15 04:29:40;;;;;;;0.60;0.60;;;;;;;6.59;99.35;98964.63;4957408;28;20091;-91
2024/02/15 04:32:10;;;;;;;0.70;0.70;;;;;;;6.65;99.83;98962.28;4988572;28;20015;-92
2024/02/15 04:34:36;;;;;;;0.60;0.60;;;;;;;6.80;100.00;98964.75;4973184;28;20099;-92
2024/02/15 04:37:06;;;;;;;0.70;0.70;;;;;;;6.85;100.00;98960.56;4973520;28;20039;-92
2024/02/15 04:39:35;;;;;;;0.60;0.60;;;;;;;6.88;100.00;98972.22;4991508;28;20038;-93
2024/02/15 04:42:02;;;;;;;0.63;0.63;;;;;;;6.91;99.64;98976.78;4956282;28;20039;-92
2024/02/15 04:44:28;;;;;;;0.70;0.70;;;;;;;6.96;98.59;98972.59;4972790;28;20059;-92
2024/02/15 04:46:55;;;;;;;0.60;0.60;;;;;;;6.89;98.71;98974.03;4970076;28;20361;-92
2024/02/15 04:49:20;;;;;;;0.70;0.70;;;;;;;7.01;98.46;98973.72;4974928;28;20035;-93
2024/02/15 04:51:49;;;;;;;0.60;0.60;;;;;;;7.02;98.41;98982.59;4987393;28;20039;-93
2024/02/15 04:54:19;;;;;;;0.70;0.70;;;;;;;7.07;98.39;98975.75;4989213;28;20309;-91
2024/02/15 04:56:45;;;;;;;0.70;0.70;;;;;;;7.01;97.56;98964.88;4969662;28;20035;-93
2024/02/15 04:59:15;;;;;;;0.60;0.60;;;;;;;7.06;98.19;98966.91;4956274;28;20094;-91
2024/02/15 05:01:44;;;;;;;0.70;0.70;;;;;;;7.05;97.70;98965.09;4975420;28;20028;-92
2024/02/15 05:04:10;;;;;;;0.60;0.60;;;;;;;7.17;97.66;98964.72;4955940;28;20039;-93
2024/02/15 05:06:36;;;;;;;0.60;0.60;;;;;;;7.16;97.59;98960.28;4981443;28;20027;-93
2024/02/15 05:09:10;;;;;;;0.60;0.60;;;;;;;7.17;97.02;98967.38;4976608;28;20062;-92
2024/02/15 05:11:41;;;;;;;0.60;0.60;;;;;;;7.25;96.82;98966.00;4976010;28;20034;-92
2024/02/15 05:14:18;;;;;;;0.70;0.70;;;;;;;7.17;96.34;98955.03;4992461;28;20044;-94
2024/02/15 05:16:47;;;;;;;0.70;0.70;;;;;;;7.22;96.57;98952.59;4973239;28;20071;-92
2024/02/15 05:19:16;;;;;;;0.60;0.60;;;;;;;7.23;96.49;98957.03;4978027;28;20230;-93
2024/02/15 05:21:44;;;;;;;0.60;0.60;;;;;;;7.28;96.11;98947.56;4978251;28;20024;-92
2024/02/15 05:24:15;;;;;;;0.60;0.60;;;;;;;7.37;95.38;98953.28;4994573;28;20038;-94
2024/02/15 05:26:46;;;;;;;0.60;0.60;;;;;;;7.37;95.36;98949.72;4979688;28;20046;-92
2024/02/15 05:29:12;;;;;;;0.70;0.70;;;;;;;7.52;94.50;98952.13;4970437;28;20032;-92
2024/02/15 05:31:42;;;;;;;0.70;0.70;;;;;;;7.40;94.56;98949.84;4995235;28;20062;-93
2024/02/15 05:34:14;;;;;;;0.70;0.70;;;;;;;7.30;95.30;98945.88;4975695;28;20046;-93
2024/02/15 05:36:39;;;;;;;0.65;0.65;;;;;;;7.40;95.42;98949.84;4980022;28;20036;-92
2024/02/15 05:39:05;;;;;;;0.60;0.60;;;;;;;7.45;95.44;98953.63;4989010;28;20038;-92
2024/02/15 05:41:32;;;;;;;0.73;0.73;;;;;;;7.46;95.04;98947.47;4979666;28;20031;-92
2024/02/15 05:43:58;;;;;;;0.70;0.70;;;;;;;7.55;94.97;98944.31;4995052;28;20050;-94
2024/02/15 05:46:25;;;;;;;0.63;0.63;;;;;;;7.55;94.86;98949.63;4977380;28;20027;-93
2024/02/15 05:48:55;;;;;;;0.70;0.70;;;;;;;7.50;94.43;98951.19;4991539;28;20034;-92
2024/02/15 05:51:22;;;;;;;0.60;0.60;;;;;;;7.53;94.58;98948.69;4977759;28;20023;-92
2024/02/15 05:53:49;;;;;;;0.60;0.60;;;;;;;7.57;94.58;98950.59;4992164;28;20083;-92
2024/02/15 05:56:15;;;;;;;0.70;0.70;;;;;;;7.54;94.58;98950.47;4977844;28;20033;-93
2024/02/15 05:58:44;;;;;;;0.60;0.60;;;;;;;7.64;94.37;98955.34;4990795;28;20031;-93
2024/02/15 06:01:12;;;;;;;0.60;0.60;;;;;;;7.66;94.43;98956.31;4972411;28;20066;-92
2024/02/15 06:03:40;;;;;;;0.60;0.60;;;;;;;7.70;94.23;98958.28;4992569;28;20046;-93
2024/02/15 06:06:08;;;;;;;0.60;0.60;;;;;;;7.68;93.87;98949.34;4988014;28;20045;-93
2024/02/15 06:08:35;;;;;;;0.60;0.60;;;;;;;7.59;94.31;98946.28;5000122;28;20058;-93
2024/02/15 06:11:10;;;;;;;0.60;0.60;;;;;;;7.67;94.30;98945.78;5647478;23;20070;-94
2024/02/15 06:13:35;;;;;;;0.60;0.60;;;;;;;7.68;94.01;98952.00;4976543;28;20039;-92
2024/02/15 06:16:09;;;;;;;0.60;0.60;;;;;;;7.65;93.82;98946.53;4958972;28;20045;-94
2024/02/15 06:18:49;;;;;;;0.68;0.68;;;;;;;7.80;93.74;98955.16;5011506;23;20054;-92
2024/02/15 06:21:18;;;;;;;0.60;0.60;;;;;;;7.83;93.54;98952.66;4962959;28;20027;-93
2024/02/15 06:23:45;;;;;;;0.60;0.60;;;;;;;7.83;93.57;98952.66;4976071;28;20074;-91
2024/02/15 06:26:11;;;;;;;0.60;0.60;;;;;;;7.83;93.58;98955.31;5386707;23;20050;-90
2024/02/15 06:39:45;;;;;;;0.60;0.60;;;;;;;7.79;93.79;98952.47;4965640;28;20040;-91
2024/02/15 06:42:19;;;;;;;0.60;0.60;;;;;;;7.81;93.60;98941.06;4969226;28;20070;-90
2024/02/15 06:44:47;;;;;;;0.68;0.68;;;;;;;7.84;93.32;98958.88;4937060;29;20055;-90
2024/02/15 06:47:15;;;;;;;0.60;0.60;;;;;;;7.92;93.51;98960.13;4955815;28;20039;-92
2024/02/15 06:49:43;;;;;;;0.60;0.60;;;;;;;7.88;93.40;98955.53;4955612;29;20024;-91
2024/02/15 06:52:11;;;;;;;0.60;0.60;;;;;;;7.87;93.18;98954.63;4969062;28;20422;-89
2024/02/15 06:54:41;;;;;;;0.60;0.60;;;;;;;7.95;93.51;98952.25;4953441;28;20307;-91
2024/02/15 07:57:41;;;;;;;0.60;0.60;;;;;;;10.43;82.55;98912.03;4965453;28;20055;-93
2024/02/15 08:08:16;;;;;;;0.60;0.60;;;;;;;12.10;71.62;98894.66;5872056;23;20518;-93
2024/02/15 08:10:43;;;;;;;0.60;0.60;;;;;;;12.90;66.75;98879.66;4937875;29;20095;-95
2024/02/15 08:13:09;;;;;;;0.50;0.50;;;;;;;13.41;65.05;98878.94;4937258;29;20036;-95
2024/02/15 08:15:35;;;;;;;0.50;0.50;;;;;;;13.66;63.67;98879.47;4936993;29;20047;-95
2024/02/15 08:18:05;;;;;;;0.40;0.40;;;;;;;13.91;62.89;98878.13;4906037;29;20126;-95
2024/02/15 08:20:31;;;;;;;0.40;0.40;;;;;;;14.52;61.38;98865.81;4918978;29;20061;-96
2024/02/15 08:22:59;;;;;;;0.30;0.30;;;;;;;13.87;62.07;98866.44;4934257;29;20051;-96
2024/02/15 08:25:25;;;;;;;0.30;0.30;;;;;;;13.81;61.63;98861.88;4950842;28;21329;-95
2024/02/15 08:27:51;;;;;;;0.40;0.40;;;;;;;13.92;60.60;98859.38;4933882;29;20027;-94
2024/02/15 08:30:17;;;;;;;0.40;0.40;;;;;;;13.56;62.11;98860.53;4935835;29;20062;-94
2024/02/15 08:32:45;;;;;;;0.40;0.40;;;;;;;14.33;61.01;98856.50;4919021;29;20051;-94
2024/02/15 08:35:12;;;;;;;0.32;0.32;;;;;;;13.23;62.56;98852.72;4902399;29;20111;-94
2024/02/15 08:37:39;;;;;;;0.30;0.30;;;;;;;13.72;62.45;98850.06;4922400;29;20040;-92
2024/02/15 08:40:13;;;;;;;0.30;0.30;;;;;;;14.10;60.29;98837.34;4919710;29;20031;-93
2024/02/15 08:42:42;;;;;;;0.30;0.30;;;;;;;13.74;62.39;98848.31;4937638;29;20044;-94
2024/02/15 08:45:09;;;;;;;0.30;0.30;;;;;;;14.07;60.94;98843.53;4937106;29;20035;-93
2024/02/15 08:47:38;;;;;;;0.40;0.40;;;;;;;14.43;59.82;98850.41;4927707;29;20020;-91
2024/02/15 08:50:06;;;;;;;0.30;0.30;;;;;;;13.74;60.57;98848.31;4969482;28;20024;-91
2024/02/15 08:52:32;;;;;;;0.30;0.30;;;;;;;13.63;61.64;98852.59;4955559;29;20083;-92
2024/02/15 08:54:59;;;;;;;0.40;0.40;;;;;;;14.00;61.15;98847.03;4940822;29;20296;-94
2024/02/15 08:57:24;;;;;;;0.40;0.40;;;;;;;14.44;59.97;98844.16;4931293;29;20095;-93
2024/02/15 08:59:52;;;;;;;0.30;0.30;;;;;;;14.80;58.90;98838.47;4931180;29;20043;-94
2024/02/15 09:02:18;;;;;;;0.30;0.30;;;;;;;14.54;60.08;98832.72;4935658;29;20125;-93
2024/02/15 09:04:43;;;;;;;0.30;0.30;;;;;;;15.02;58.05;98833.38;4938909;29;20043;-94
2024/02/15 09:07:09;;;;;;;0.30;0.30;;;;;;;14.93;57.40;98842.22;4935369;29;20048;-94
2024/02/15 09:09:36;;;;;;;0.30;0.30;;;;;;;15.02;57.55;98836.97;4922256;29;20040;-93
2024/02/15 09:12:05;;;;;;;;;;;;;;;15.52;56.99;98834.00;4959990;29;20043;-93
2024/02/15 09:14:34;;;;;;;0.30;0.30;;;;;;;16.09;54.40;98819.31;4938055;29;19915;-94
2024/02/15 09:17:07;;;;;;;0.30;0.30;;;;;;;15.93;54.93;98829.94;4953743;29;20063;-95
2024/02/15 09:19:34;;;;;;;0.30;0.30;;;;;;;16.11;53.64;98825.63;4938469;29;20042;-93
2024/02/15 09:22:00;;;;;;;0.30;0.30;;;;;;;16.94;52.44;98820.84;4937825;29;20108;-94
2024/02/15 09:24:25;;;;;;;0.30;0.30;;;;;;;16.15;53.72;98823.88;4939566;29;20114;-93
2024/02/15 09:26:52;;;;;;;0.20;0.20;;;;;;;16.86;52.77;98814.50;4924378;29;20118;-92
2024/02/15 09:29:20;;;;;;;0.30;0.30;;;;;;;16.84;51.47;98821.69;4937188;29;20038;-94
2024/02/15 09:31:47;;;;;;;0.20;0.20;;;;;;;16.76;51.77;98818.03;4944533;29;20043;-91
2024/02/15 09:34:13;;;;;;;;;;;;;;;16.25;52.42;98831.13;4949966;29;20024;-93
2024/02/15 09:36:39;;;;;;;0.20;0.20;;;;;;;17.53;49.56;98821.97;4946626;28;19945;-93
2024/02/15 09:39:05;;;;;;;0.20;0.20;;;;;;;18.81;47.01;98824.78;4939952;29;20043;-92
2024/02/15 09:41:34;;;;;;;0.20;0.20;;;;;;;17.54;48.63;98819.31;4919875;29;20062;-93
2024/02/15 09:44:01;;;;;;;0.20;0.20;;;;;;;18.22;47.17;98814.03;4946093;28;20050;-94
2024/02/15 09:46:27;;;;;;;0.20;0.20;;;;;;;19.36;44.82;98805.66;4942335;29;20086;-94
2024/02/15 09:48:58;;;;;;;0.10;0.10;;;;;;;20.34;42.75;98793.28;4940777;28;20039;-95
2024/02/15 09:51:27;;;;;;;0.13;0.13;;;;;;;18.05;46.61;98808.59;4939563;29;20497;-94
2024/02/15 09:53:53;;;;;;;0.10;0.10;;;;;;;20.44;42.18;98789.56;4945577;28;20019;-93
2024/02/15 09:56:21;;;;;;;0.20;0.20;;;;;;;20.53;41.99;98789.53;4943053;29;20043;-93
2024/02/15 09:58:47;;;;;;;0.20;0.20;;;;;;;18.91;43.95;98799.50;4939799;29;20044;-94
2024/02/15 10:01:14;;;;;;;0.20;0.20;;;;;;;17.84;46.44;98801.41;4938099;29;20683;-94
2024/02/15 10:03:41;;;;;;;0.20;0.20;;;;;;;17.83;46.51;98799.59;4958281;28;20080;-94
2024/02/15 10:06:06;;;;;;;0.20;0.20;;;;;;;17.18;47.70;98795.78;4953704;28;20028;-93
2024/02/15 10:08:32;;;;;;;0.20;0.20;;;;;;;19.29;44.83;98786.75;4942938;29;20071;-93
2024/02/15 10:11:08;;;;;;;0.20;0.20;;;;;;;19.28;43.10;98787.66;4939613;29;20074;-92
2024/02/15 10:13:35;;;;;;;0.20;0.20;;;;;;;20.68;40.79;98785.75;4938681;29;20046;-92
2024/02/15 10:16:25;;;;;;;0.20;0.20;;;;;;;21.20;39.15;98779.72;4938963;29;20032;-93
2024/02/15 10:18:50;;;;;;;0.20;0.20;;;;;;;19.66;42.83;98780.25;4940906;29;20063;-91
2024/02/15 10:21:26;;;;;;;0.20;0.20;;;;;;;19.95;41.12;98779.16;4939426;29;20027;-92
2024/02/15 10:24:16;;;;;;;0.10;0.10;;;;;;;20.77;39.41;98765.78;4932899;29;20044;-92
2024/02/15 10:26:47;;;;;;;0.10;0.10;;;;;;;20.04;40.49;98778.19;4936961;29;20134;-93
2024/02/15 10:29:19;;;;;;;0.10;0.10;;;;;;;22.17;37.69;98762.97;4935225;29;20118;-93
2024/02/15 10:31:56;;;;;;;0.10;0.10;;;;;;;21.65;36.96;98761.91;4927513;29;20031;-93
2024/02/15 10:34:40;;;;;;;0.10;0.10;;;;;;;20.30;39.84;98761.69;4934111;29;20055;-92
2024/02/15 10:37:12;;;;;;;0.20;0.20;;;;;;;19.38;41.87;98759.66;4915126;29;20039;-92
2024/02/15 10:39:38;;;;;;;0.10;0.10;;;;;;;21.20;39.25;98758.00;4953459;29;20032;-92
2024/02/15 10:42:06;;;;;;;0.20;0.20;;;;;;;22.17;36.43;98746.66;4945032;29;20107;-93
2024/02/15 10:44:43;;;;;;;0.10;0.10;;;;;;;22.50;35.47;98742.44;4936630;29;20024;-93
2024/02/15 10:47:16;;;;;;;0.10;0.10;;;;;;;22.67;35.20;98740.31;4937547;29;20123;-93
2024/02/15 10:49:42;;;;;;;0.10;0.10;;;;;;;22.03;36.18;98733.25;4940321;29;20386;-94
2024/02/15 10:52:15;;;;;;;0.10;0.10;;;;;;;20.83;37.45;98735.88;4937862;29;20070;-91
2024/02/15 10:55:09;;;;;;;0.10;0.10;;;;;;;20.65;38.21;98729.75;4939046;29;20449;-95
2024/02/15 10:57:39;;;;;;;0.10;0.10;;;;;;;20.34;38.75;98725.53;4932107;29;20052;-95
2024/02/15 11:00:25;;;;;;;0.10;0.10;;;;;;;20.68;39.17;98728.81;4938917;29;20051;-94
2024/02/15 11:03:26;;;;;;;0.10;0.10;;;;;;;20.56;38.60;98720.84;4918605;29;20154;-94
2024/02/15 11:05:55;;;;;;;0.20;0.20;;;;;;;22.23;36.47;98717.56;4933164;29;20051;-93
2024/02/15 11:08:25;;;;;;;0.10;0.10;;;;;;;21.82;36.58;98709.19;4941775;29;20027;-92
2024/02/15 11:10:51;;;;;;;0.20;0.20;;;;;;;19.66;40.13;98719.81;4934185;29;20139;-92
2024/02/15 11:13:17;;;;;;;0.10;0.10;;;;;;;18.71;41.94;98715.78;4934179;29;20036;-92
2024/02/15 11:15:49;;;;;;;0.15;0.15;;;;;;;21.74;35.55;98703.88;4944876;29;20082;-93
2024/02/15 11:18:48;;;;;;;0.20;0.20;;;;;;;19.86;40.25;98707.00;4965022;29;20125;-92
2024/02/15 11:21:16;;;;;;;0.20;0.20;;;;;;;19.22;40.57;98702.94;4941128;29;20031;-92
2024/02/15 11:23:42;;;;;;;0.20;0.20;;;;;;;20.40;39.61;98691.13;4949169;29;20039;-92
2024/02/15 11:26:30;;;;;;;0.20;0.20;;;;;;;22.71;35.60;98681.31;4950706;29;20058;-93
2024/02/15 11:28:55;;;;;;;0.20;0.20;;;;;;;20.44;37.48;98683.88;4949630;29;20087;-92
2024/02/15 11:31:52;;;;;;;0.20;0.20;;;;;;;22.40;34.71;98678.28;4954779;29;20023;-92
2024/02/15 11:34:45;;;;;;;0.10;0.10;;;;;;;22.92;32.74;98680.88;4950963;29;20052;-91
2024/02/15 11:40:28;;;;;;;0.10;0.10;;;;;;;20.32;37.50;98674.06;4960087;29;20399;-93
2024/02/15 11:42:59;;;;;;;0.20;0.20;;;;;;;21.01;36.53;98663.28;4939123;29;20038;-93
2024/02/15 11:45:26;;;;;;;0.20;0.20;;;;;;;22.36;36.60;98654.81;4934374;29;20047;-93
2024/02/15 11:47:53;;;;;;;0.20;0.20;;;;;;;22.05;35.47;98658.06;4936612;29;20008;-92
2024/02/15 11:50:20;;;;;;;0.20;0.20;;;;;;;20.28;37.87;98653.34;4933421;29;20039;-93
2024/02/15 11:52:51;;;;;;;0.20;0.20;;;;;;;20.95;37.43;98648.94;4940949;29;20024;-92
2024/02/15 11:55:21;;;;;;;0.20;0.20;;;;;;;21.72;34.43;98648.69;4958519;29;20086;-93
2024/02/15 11:58:41;;;;;;;0.20;0.20;;;;;;;21.84;35.07;98644.84;4925115;29;20051;-92
2024/02/15 12:20:14;;;;;;;0.20;0.20;;;;;;;22.56;33.56;98628.09;4950914;29;20051;-92
2024/02/15 12:22:48;;;;;;;0.20;0.20;;;;;;;21.78;35.55;98627.75;4950346;29;20043;-91
2024/02/15 12:25:16;;;;;;;0.20;0.20;;;;;;;23.03;33.13;98623.50;4953580;29;20074;-91
2024/02/15 12:27:43;;;;;;;0.20;0.20;;;;;;;21.38;36.00;98632.06;4966481;29;20126;-92
2024/02/15 12:30:20;;;;;;;0.17;0.17;;;;;;;23.66;31.74;98616.56;4934086;29;20051;-93
2024/02/15 12:32:47;;;;;;;;;;;;;;;22.83;32.49;98625.75;4933577;29;20118;-93
2024/02/15 12:35:19;;;;;;;0.20;0.20;;;;;;;22.68;32.70;98622.41;4926108;29;19918;-95
2024/02/15 12:38:05;;;;;;;0.20;0.20;;;;;;;22.37;35.15;98621.25;4951299;29;20043;-93
2024/02/15 12:40:33;;;;;;;0.20;0.20;;;;;;;24.03;31.15;98605.63;4953249;29;20051;-93
2024/02/15 12:43:05;;;;;;;0.10;0.10;;;;;;;22.94;32.90;98601.94;4939388;29;20040;-94
2024/02/15 12:45:32;;;;;;;0.20;0.20;;;;;;;22.30;34.86;98606.91;4950767;29;20044;-93
2024/02/15 12:47:58;;;;;;;0.20;0.20;;;;;;;21.97;34.61;98601.16;4932490;28;20442;-94
2024/02/15 12:50:27;;;;;;;0.20;0.20;;;;;;;22.15;35.05;98596.31;4938023;29;20050;-94
2024/02/15 12:52:55;;;;;;;0.20;0.20;;;;;;;22.20;33.54;98586.25;4927354;29;20047;-94
2024/02/15 12:55:24;;;;;;;0.20;0.20;;;;;;;21.70;34.14;98586.25;4950007;28;20056;-92
2024/02/15 12:57:55;;;;;;;0.10;0.10;;;;;;;19.22;39.37;98589.31;4931429;29;20118;-94
2024/02/15 13:00:23;;;;;;;0.10;0.10;;;;;;;20.37;38.24;98580.06;4907609;29;20031;-95
2024/02/15 13:02:50;;;;;;;0.20;0.20;;;;;;;19.31;39.32;98574.84;4939417;29;20035;-93
2024/02/15 13:05:21;;;;;;;0.10;0.10;;;;;;;20.58;38.67;98573.50;4934392;28;20052;-94
2024/02/15 13:07:51;;;;;;;0.10;0.10;;;;;;;20.45;37.63;98569.13;4949409;29;20047;-92
2024/02/15 13:10:17;;;;;;;0.20;0.20;;;;;;;19.93;38.82;98558.91;4922214;29;20028;-93
2024/02/15 13:12:44;;;;;;;0.20;0.20;;;;;;;19.69;39.13;98566.41;4937520;29;20047;-91
2024/02/15 13:15:17;;;;;;;0.20;0.20;;;;;;;19.55;39.84;98565.59;4951109;29;20550;-93
2024/02/15 13:17:48;;;;;;;0.20;0.20;;;;;;;19.31;40.20;98552.31;4951438;29;20040;-93
2024/02/15 13:20:15;;;;;;;0.20;0.20;;;;;;;18.39;41.70;98552.84;4940616;29;20036;-92
2024/02/15 13:22:43;;;;;;;0.20;0.20;;;;;;;18.36;42.00;98547.50;4943024;29;20050;-92
2024/02/15 13:25:09;;;;;;;0.20;0.20;;;;;;;18.75;41.93;98549.09;4942863;29;20309;-92
2024/02/15 13:27:38;;;;;;;0.20;0.20;;;;;;;20.02;39.66;98539.84;4935271;29;20047;-92
2024/02/15 13:30:09;;;;;;;0.20;0.20;;;;;;;19.42;40.14;98537.75;4952159;29;20035;-92